Time;durP1;ratioP1;P1;durP2;ratioP2;P2;SDS_P1;SDS_P2;PMS_P1;PMS_P2;Temp;Humidity;BMP_temperature;BMP_pressure;BME280_temperature;BME280_humidity;BME280_pressure;Samples;Min_cycle;Max_cycle;Signal;HPM_P1;HPM_P2
2023/05/16 00:01:58;;;;;;;1.50;1.00;;;12.80;98.20;;;;;;5036037;28;20477;-81
2023/05/16 00:04:26;;;;;;;1.50;1.00;;;12.80;98.20;;;;;;5041302;28;20494;-81
2023/05/16 00:06:53;;;;;;;1.50;1.10;;;12.80;98.20;;;;;;5035077;28;21071;-80
2023/05/16 00:09:20;;;;;;;1.50;1.10;;;12.70;98.20;;;;;;5034121;28;20471;-81
2023/05/16 00:11:47;;;;;;;1.50;1.00;;;12.70;98.20;;;;;;5028997;28;21039;-82
2023/05/16 00:14:14;;;;;;;1.50;1.00;;;12.80;98.20;;;;;;5039820;28;20512;-82
2023/05/16 00:16:42;;;;;;;1.50;1.00;;;12.70;98.20;;;;;;5035375;28;20485;-81
2023/05/16 00:19:09;;;;;;;1.50;1.00;;;12.60;98.20;;;;;;5039804;28;20460;-80
2023/05/16 00:21:36;;;;;;;1.50;1.00;;;12.50;98.20;;;;;;5034362;28;20526;-81
2023/05/16 00:24:04;;;;;;;1.50;1.10;;;12.40;98.20;;;;;;5041881;28;20533;-81
2023/05/16 00:26:31;;;;;;;1.50;1.00;;;12.30;98.20;;;;;;5024136;28;20489;-81
2023/05/16 00:28:58;;;;;;;1.50;1.10;;;12.30;98.20;;;;;;5045364;28;20920;-79
2023/05/16 00:31:25;;;;;;;1.50;1.10;;;12.20;98.20;;;;;;5025391;28;20476;-80
2023/05/16 00:33:53;;;;;;;1.50;1.10;;;12.20;98.20;;;;;;5051349;28;20873;-80
2023/05/16 00:36:20;;;;;;;1.50;1.00;;;12.20;98.20;;;;;;5020880;28;20597;-77
2023/05/16 00:38:47;;;;;;;1.50;1.00;;;12.10;98.20;;;;;;5047662;28;20552;-78
2023/05/16 00:41:14;;;;;;;1.50;1.10;;;12.10;98.20;;;;;;5028824;28;20486;-78
2023/05/16 00:43:41;;;;;;;1.50;1.00;;;12.10;98.20;;;;;;5049162;28;20476;-80
2023/05/16 00:46:08;;;;;;;1.50;1.03;;;12.10;98.20;;;;;;5018178;28;20757;-78
2023/05/16 00:48:34;;;;;;;1.50;1.00;;;12.10;98.20;;;;;;5060138;28;20462;-80
2023/05/16 00:51:03;;;;;;;1.50;1.00;;;12.00;98.20;;;;;;5013543;28;20455;-79
2023/05/16 00:53:30;;;;;;;1.50;1.03;;;12.00;98.20;;;;;;5059473;28;20862;-81
2023/05/16 00:55:57;;;;;;;1.50;1.10;;;11.90;98.20;;;;;;5008550;28;20463;-81
2023/05/16 00:58:25;;;;;;;1.50;1.00;;;11.90;98.20;;;;;;5066800;28;20463;-81
2023/05/16 01:00:52;;;;;;;1.50;1.00;;;11.90;98.20;;;;;;5005800;28;21204;-81
2023/05/16 01:03:19;;;;;;;1.50;1.10;;;11.80;98.20;;;;;;5051455;28;20471;-82
2023/05/16 01:05:46;;;;;;;1.50;1.13;;;11.80;98.20;;;;;;5019015;28;20551;-81
2023/05/16 01:08:18;;;;;;;1.50;1.10;;;11.70;98.20;;;;;;5019219;28;20479;-82
2023/05/16 01:11:00;;;;;;;1.50;1.10;;;11.60;98.20;;;;;;5017953;28;20975;-82
2023/05/16 01:13:37;;;;;;;1.50;1.10;;;11.50;98.20;;;;;;5013657;28;20501;-82
2023/05/16 01:16:09;;;;;;;1.50;1.10;;;11.50;98.20;;;;;;5012626;28;20465;-82
2023/05/16 01:18:43;;;;;;;1.53;1.20;;;11.40;98.20;;;;;;5048022;28;20570;-82
2023/05/16 01:21:15;;;;;;;1.50;1.07;;;11.40;98.20;;;;;;5021612;28;20477;-82
2023/05/16 01:23:52;;;;;;;1.50;1.10;;;11.40;98.20;;;;;;5044185;28;20473;-81
2023/05/16 01:26:22;;;;;;;1.50;1.10;;;11.30;98.20;;;;;;5021112;28;21207;-82
2023/05/16 01:28:50;;;;;;;1.50;1.10;;;11.30;98.20;;;;;;5041258;28;20460;-81
2023/05/16 01:31:21;;;;;;;1.50;1.10;;;11.30;98.20;;;;;;5020854;28;20473;-81
2023/05/16 01:33:48;;;;;;;1.50;1.20;;;11.30;98.20;;;;;;5039481;28;20483;-80
2023/05/16 01:36:24;;;;;;;1.50;1.10;;;11.30;98.20;;;;;;5017354;28;20485;-81
2023/05/16 01:39:01;;;;;;;1.50;1.00;;;11.30;98.20;;;;;;5048964;28;20450;-81
2023/05/16 01:41:40;;;;;;;1.50;1.10;;;11.30;98.20;;;;;;5028205;28;20491;-81
2023/05/16 01:44:16;;;;;;;1.50;1.10;;;11.20;98.20;;;;;;5042734;28;20487;-81
2023/05/16 01:46:48;;;;;;;1.50;1.10;;;11.20;98.20;;;;;;5030187;28;20492;-79
2023/05/16 01:49:21;;;;;;;1.50;1.07;;;11.20;98.20;;;;;;5048342;28;20464;-82
2023/05/16 01:51:52;;;;;;;1.50;1.00;;;11.20;98.20;;;;;;5033992;28;20985;-81
2023/05/16 01:54:21;;;;;;;1.50;1.10;;;11.20;98.20;;;;;;5044828;28;20483;-80
2023/05/16 01:56:52;;;;;;;1.50;1.10;;;11.20;98.20;;;;;;5030061;28;20474;-81
2023/05/16 01:59:21;;;;;;;1.50;1.10;;;11.10;98.20;;;;;;5043416;28;20466;-81
2023/05/16 02:01:48;;;;;;;1.50;1.10;;;11.00;98.20;;;;;;5031983;28;20485;-80
2023/05/16 02:04:18;;;;;;;1.50;1.10;;;11.00;98.20;;;;;;5040947;28;20491;-81
2023/05/16 02:06:45;;;;;;;1.50;1.10;;;11.00;98.20;;;;;;5029488;28;20477;-81
2023/05/16 02:09:12;;;;;;;1.50;1.10;;;11.00;98.20;;;;;;5041253;28;20467;-80
2023/05/16 02:11:39;;;;;;;1.50;1.10;;;11.00;98.20;;;;;;5029218;28;21036;-83
2023/05/16 02:14:10;;;;;;;1.50;1.00;;;11.00;98.20;;;;;;5044629;28;20967;-83
2023/05/16 02:16:37;;;;;;;1.50;1.10;;;10.90;98.20;;;;;;5033593;28;21024;-80
2023/05/16 02:19:04;;;;;;;1.50;1.20;;;10.90;98.20;;;;;;5040754;28;20505;-81
2023/05/16 02:21:31;;;;;;;1.50;1.20;;;10.80;98.20;;;;;;5030026;28;20479;-82
2023/05/16 02:23:58;;;;;;;1.50;1.10;;;10.80;98.20;;;;;;5041496;28;20509;-82
2023/05/16 02:26:26;;;;;;;1.50;1.10;;;10.80;98.20;;;;;;5029682;28;20483;-82
2023/05/16 02:28:53;;;;;;;1.50;1.10;;;10.80;98.20;;;;;;5048254;28;20482;-82
2023/05/16 02:31:31;;;;;;;1.50;1.00;;;10.80;98.20;;;;;;5027903;28;20469;-82
2023/05/16 02:34:14;;;;;;;1.50;1.10;;;10.80;98.20;;;;;;5047065;28;20490;-82
2023/05/16 02:36:44;;;;;;;1.50;1.10;;;10.70;98.20;;;;;;5030073;28;20576;-81
2023/05/16 02:39:11;;;;;;;1.50;1.10;;;10.70;98.20;;;;;;5043775;28;20904;-78
2023/05/16 02:41:38;;;;;;;1.50;1.10;;;10.70;98.20;;;;;;5037715;28;20474;-80
2023/05/16 02:44:05;;;;;;;1.50;1.10;;;10.60;98.20;;;;;;5042869;28;21015;-80
2023/05/16 02:46:34;;;;;;;1.50;1.10;;;10.60;98.20;;;;;;5029188;28;20485;-79
2023/05/16 02:49:02;;;;;;;1.50;1.10;;;10.60;98.20;;;;;;5049131;28;20466;-79
2023/05/16 02:51:28;;;;;;;1.60;1.23;;;10.50;98.20;;;;;;5031974;28;21055;-79
2023/05/16 02:53:58;;;;;;;1.50;1.20;;;10.50;98.20;;;;;;5047098;28;20478;-79
2023/05/16 02:56:25;;;;;;;1.50;1.20;;;10.50;98.20;;;;;;5032980;28;20542;-79
2023/05/16 02:58:53;;;;;;;1.53;1.20;;;10.50;98.20;;;;;;5054426;28;20462;-79
2023/05/16 03:01:20;;;;;;;1.53;1.20;;;10.60;98.20;;;;;;5030672;28;20486;-80
2023/05/16 03:03:48;;;;;;;1.50;1.10;;;10.50;98.20;;;;;;5052460;28;20881;-81
2023/05/16 03:06:15;;;;;;;1.50;1.10;;;10.50;98.20;;;;;;5020561;22;20816;-76
2023/05/16 03:08:41;;;;;;;1.53;1.13;;;10.40;98.20;;;;;;4996962;28;20456;-76
2023/05/16 03:11:08;;;;;;;1.50;1.10;;;10.40;98.20;;;;;;4984811;28;20472;-77
2023/05/16 03:13:35;;;;;;;1.53;1.13;;;10.40;98.20;;;;;;5000733;28;20888;-76
2023/05/16 03:16:02;;;;;;;1.50;1.07;;;10.40;98.20;;;;;;4990337;28;20511;-79
2023/05/16 03:18:29;;;;;;;1.50;1.10;;;10.40;98.20;;;;;;5000083;28;20643;-79
2023/05/16 03:21:22;;;;;;;1.50;1.13;;;10.30;98.20;;;;;;4995363;28;20464;-78
2023/05/16 03:23:49;;;;;;;1.50;1.10;;;10.30;98.20;;;;;;5011969;28;20477;-79
2023/05/16 03:26:16;;;;;;;1.50;1.20;;;10.30;98.20;;;;;;4995690;28;20483;-80
2023/05/16 03:28:43;;;;;;;1.50;1.10;;;10.30;98.20;;;;;;5004739;28;20461;-79
2023/05/16 03:31:10;;;;;;;1.50;1.10;;;10.20;98.20;;;;;;4995102;28;20598;-78
2023/05/16 03:33:36;;;;;;;1.53;1.10;;;10.20;98.20;;;;;;5010256;28;20469;-80
2023/05/16 03:36:04;;;;;;;1.50;1.10;;;10.20;98.20;;;;;;4994591;28;20575;-78
2023/05/16 03:38:32;;;;;;;1.57;1.13;;;10.20;98.20;;;;;;5008755;28;20461;-78
2023/05/16 03:40:59;;;;;;;1.70;1.50;;;10.20;98.20;;;;;;4989304;28;20480;-78
2023/05/16 03:43:26;;;;;;;1.50;1.10;;;10.10;98.20;;;;;;4996056;28;20812;-77
2023/05/16 03:45:53;;;;;;;1.50;1.10;;;10.10;98.20;;;;;;4983765;28;20476;-77
2023/05/16 03:48:20;;;;;;;1.50;1.10;;;10.10;98.20;;;;;;4988611;28;20469;-77
2023/05/16 03:50:47;;;;;;;1.50;1.10;;;10.10;98.20;;;;;;4989547;28;20849;-78
2023/05/16 03:53:14;;;;;;;1.50;1.10;;;10.10;98.20;;;;;;4992061;28;20470;-78
2023/05/16 03:55:42;;;;;;;1.57;1.17;;;10.00;98.20;;;;;;4991616;28;20480;-78
2023/05/16 03:58:10;;;;;;;1.50;1.17;;;10.10;98.20;;;;;;4990163;28;20506;-78
2023/05/16 04:00:37;;;;;;;1.50;1.20;;;10.00;98.20;;;;;;4984362;28;20969;-78
2023/05/16 04:03:06;;;;;;;1.60;1.20;;;10.00;98.20;;;;;;4997705;28;20523;-78
2023/05/16 04:05:45;;;;;;;1.50;1.20;;;10.00;98.20;;;;;;4993717;28;20503;-78
2023/05/16 04:08:12;;;;;;;1.50;1.10;;;10.00;98.20;;;;;;4996581;28;20546;-78
2023/05/16 04:10:39;;;;;;;1.50;1.03;;;10.00;98.20;;;;;;4987845;28;20458;-77
2023/05/16 04:13:12;;;;;;;1.53;1.17;;;9.90;98.20;;;;;;4992664;28;20490;-76
2023/05/16 04:15:39;;;;;;;1.50;1.10;;;9.90;98.20;;;;;;4988165;28;20481;-77
2023/05/16 04:18:06;;;;;;;1.60;1.30;;;9.90;98.20;;;;;;4992898;28;20852;-77
2023/05/16 04:21:32;;;;;;;1.50;1.10;;;9.80;98.20;;;;;;4988505;28;21008;-77
2023/05/16 04:23:59;;;;;;;1.50;1.10;;;9.80;98.20;;;;;;4904731;28;20490;-77
2023/05/16 04:26:26;;;;;;;1.50;1.10;;;9.80;98.20;;;;;;4981093;28;20814;-78
2023/05/16 04:28:54;;;;;;;1.53;1.20;;;9.80;98.20;;;;;;4996006;28;20939;-79
2023/05/16 04:31:22;;;;;;;1.50;1.10;;;9.80;98.20;;;;;;4982412;28;20483;-79
2023/05/16 04:33:49;;;;;;;1.50;1.10;;;9.80;98.20;;;;;;5000911;28;20465;-78
2023/05/16 04:36:16;;;;;;;1.50;1.10;;;9.80;98.20;;;;;;4982247;28;20485;-77
2023/05/16 04:38:42;;;;;;;1.50;1.10;;;9.80;98.20;;;;;;5001501;28;20486;-78
2023/05/16 04:41:09;;;;;;;1.53;1.20;;;9.80;98.20;;;;;;4981511;28;20615;-79
2023/05/16 04:43:37;;;;;;;1.50;1.20;;;9.80;98.20;;;;;;4992965;28;20468;-77
2023/05/16 04:46:06;;;;;;;1.57;1.10;;;9.80;98.20;;;;;;4977464;28;20839;-79
2023/05/16 04:48:33;;;;;;;1.50;1.10;;;9.90;98.20;;;;;;4993428;28;20487;-78
2023/05/16 04:51:00;;;;;;;1.50;1.10;;;9.90;98.20;;;;;;4979327;28;20468;-78
2023/05/16 04:53:29;;;;;;;1.53;1.10;;;9.90;98.20;;;;;;4988886;28;21022;-77
2023/05/16 04:55:56;;;;;;;1.50;1.20;;;9.90;98.20;;;;;;4972650;28;20553;-78
2023/05/16 04:58:23;;;;;;;1.50;1.10;;;9.90;98.20;;;;;;4995182;28;20469;-78
2023/05/16 05:01:02;;;;;;;1.50;1.20;;;10.00;98.20;;;;;;4969838;28;20469;-77
2023/05/16 05:03:31;;;;;;;1.50;1.10;;;10.00;98.20;;;;;;4988408;28;20458;-78
2023/05/16 05:06:04;;;;;;;1.50;1.10;;;10.10;98.20;;;;;;4974278;28;20497;-78
2023/05/16 05:08:31;;;;;;;1.50;1.10;;;10.20;98.20;;;;;;4991776;28;20470;-77
2023/05/16 05:10:58;;;;;;;1.50;1.20;;;10.30;98.20;;;;;;4976692;28;20470;-77
2023/05/16 05:13:25;;;;;;;1.50;1.10;;;10.40;98.20;;;;;;4988175;28;20486;-77
2023/05/16 05:16:07;;;;;;;1.50;1.10;;;10.50;98.20;;;;;;4971664;28;20516;-78
2023/05/16 05:18:38;;;;;;;1.50;1.10;;;10.70;98.20;;;;;;4989366;28;20544;-79
2023/05/16 05:24:38;;;;;;;1.50;1.10;;;10.80;98.20;;;;;;4959284;28;20576;-77
2023/05/16 05:27:05;;;;;;;1.50;1.10;;;11.00;98.20;;;;;;4981129;28;20488;-77
2023/05/16 05:29:32;;;;;;;1.50;1.10;;;11.10;98.20;;;;;;4988151;28;20465;-80
2023/05/16 05:31:59;;;;;;;1.50;1.10;;;11.20;98.20;;;;;;4981054;28;20493;-78
2023/05/16 05:34:49;;;;;;;1.50;1.10;;;11.30;98.20;;;;;;4990904;28;20941;-78
2023/05/16 05:37:25;;;;;;;1.50;1.10;;;11.30;98.20;;;;;;4980634;28;20593;-78
2023/05/16 05:39:51;;;;;;;1.53;1.20;;;11.40;98.20;;;;;;4990180;28;20468;-79
2023/05/16 05:42:18;;;;;;;1.50;1.10;;;11.40;98.20;;;;;;4983373;28;20566;-79
2023/05/16 05:44:45;;;;;;;1.50;1.10;;;11.40;98.20;;;;;;4980666;28;20466;-79
2023/05/16 05:47:13;;;;;;;1.50;1.10;;;11.50;98.20;;;;;;4985664;28;20494;-78
2023/05/16 05:49:41;;;;;;;1.50;1.10;;;11.50;98.20;;;;;;4984679;28;20469;-81
2023/05/16 05:52:08;;;;;;;1.50;1.10;;;11.60;98.20;;;;;;4987700;28;20484;-81
2023/05/16 05:55:00;;;;;;;1.50;1.00;;;11.70;98.20;;;;;;4989791;28;20461;-79
2023/05/16 05:57:27;;;;;;;1.50;1.00;;;11.90;98.20;;;;;;4978258;28;20994;-81
2023/05/16 05:59:56;;;;;;;1.50;1.07;;;12.00;98.20;;;;;;4989467;28;20469;-80
2023/05/16 06:02:28;;;;;;;1.50;1.07;;;12.30;98.20;;;;;;4982961;28;20477;-80
2023/05/16 06:04:57;;;;;;;1.50;1.10;;;12.40;98.20;;;;;;4981758;28;20519;-81
2023/05/16 06:07:23;;;;;;;1.50;1.10;;;12.70;98.20;;;;;;4986672;28;20475;-79
2023/05/16 06:09:50;;;;;;;1.50;1.00;;;12.90;98.20;;;;;;4987394;28;20461;-79
2023/05/16 06:12:17;;;;;;;1.50;1.00;;;13.10;98.20;;;;;;4985263;28;21008;-80
2023/05/16 06:14:44;;;;;;;1.50;1.00;;;13.20;98.20;;;;;;4988078;28;20472;-80
2023/05/16 06:17:11;;;;;;;1.80;1.10;;;13.20;98.20;;;;;;4986356;28;20515;-79
2023/05/16 06:19:38;;;;;;;1.50;1.00;;;13.30;98.20;;;;;;4985613;28;20457;-80
2023/05/16 06:22:38;;;;;;;1.50;1.00;;;13.30;98.20;;;;;;4980342;28;20480;-77
2023/05/16 06:25:09;;;;;;;1.50;0.93;;;13.50;98.20;;;;;;4990384;28;20469;-79
2023/05/16 06:27:36;;;;;;;1.50;1.00;;;13.50;98.20;;;;;;4983235;28;20570;-79
2023/05/16 06:30:03;;;;;;;1.50;1.00;;;13.60;98.20;;;;;;4981373;28;20483;-79
2023/05/16 06:32:30;;;;;;;1.50;1.00;;;13.70;98.20;;;;;;4985517;28;20805;-79
2023/05/16 06:34:57;;;;;;;1.50;1.10;;;13.80;98.20;;;;;;4985433;28;20968;-79
2023/05/16 06:37:28;;;;;;;1.50;0.90;;;13.80;98.20;;;;;;4984027;28;20855;-79
2023/05/16 06:39:55;;;;;;;1.50;1.10;;;13.70;98.20;;;;;;4988040;28;21015;-80
2023/05/16 06:42:22;;;;;;;1.50;1.00;;;13.50;98.20;;;;;;4987023;28;20484;-79
2023/05/16 06:47:43;;;;;;;1.50;1.00;;;13.20;98.20;;;;;;4997531;23;20502;-77
2023/05/16 06:50:10;;;;;;;1.50;1.00;;;13.00;98.20;;;;;;4981515;28;20475;-79
2023/05/16 06:52:38;;;;;;;1.50;1.00;;;12.90;98.20;;;;;;4989996;28;20539;-80
2023/05/16 06:55:06;;;;;;;1.50;1.00;;;12.60;98.20;;;;;;4983573;28;20465;-79
2023/05/16 06:57:33;;;;;;;1.50;1.00;;;12.40;98.20;;;;;;4973319;28;20555;-80
2023/05/16 06:59:59;;;;;;;1.50;1.00;;;12.30;98.20;;;;;;4969597;28;20473;-80
2023/05/16 07:02:26;;;;;;;1.50;1.00;;;12.20;98.20;;;;;;4972641;28;20476;-79
2023/05/16 07:04:54;;;;;;;1.50;1.00;;;12.20;98.20;;;;;;4972045;28;20871;-79
2023/05/16 07:07:20;;;;;;;1.50;1.00;;;12.10;98.20;;;;;;4977625;28;20498;-80
2023/05/16 07:09:49;;;;;;;1.50;1.00;;;12.00;98.20;;;;;;4974583;28;20465;-79
2023/05/16 07:12:15;;;;;;;1.50;1.00;;;11.90;98.20;;;;;;4971502;28;20485;-79
2023/05/16 07:14:43;;;;;;;1.50;1.00;;;11.80;98.20;;;;;;4968482;28;20474;-79
2023/05/16 07:17:10;;;;;;;1.50;1.00;;;11.80;98.20;;;;;;4965428;28;20588;-79
2023/05/16 07:19:42;;;;;;;1.50;1.00;;;11.70;98.20;;;;;;4966583;28;20496;-80
2023/05/16 07:22:12;;;;;;;1.50;1.00;;;11.70;98.20;;;;;;4956225;28;20801;-78
2023/05/16 07:24:39;;;;;;;1.50;1.00;;;11.80;98.20;;;;;;4951721;28;20586;-78
2023/05/16 07:27:09;;;;;;;1.47;1.00;;;11.90;98.20;;;;;;4956169;28;20926;-78
2023/05/16 07:29:36;;;;;;;1.50;1.00;;;12.00;98.20;;;;;;4953202;28;20471;-78
2023/05/16 07:32:03;;;;;;;1.50;1.00;;;12.10;98.20;;;;;;4946366;28;20485;-78
2023/05/16 07:34:30;;;;;;;1.50;1.00;;;12.20;98.20;;;;;;4960218;28;20855;-77
2023/05/16 07:39:50;;;;;;;1.50;1.00;;;12.90;98.20;;;;;;4976569;28;20465;-78
2023/05/16 07:42:18;;;;;;;1.50;1.00;;;13.40;98.20;;;;;;4970596;28;20489;-76
2023/05/16 07:44:45;;;;;;;1.50;1.00;;;13.90;98.20;;;;;;4971280;28;20480;-78
2023/05/16 07:47:12;;;;;;;1.50;1.00;;;14.10;98.20;;;;;;4974067;28;20484;-78
2023/05/16 07:49:39;;;;;;;1.50;0.90;;;14.20;98.20;;;;;;4983556;28;20556;-78
2023/05/16 07:52:06;;;;;;;1.50;1.00;;;14.40;98.20;;;;;;4966776;28;20481;-78
2023/05/16 07:54:34;;;;;;;1.50;1.00;;;14.40;97.40;;;;;;4979394;28;20467;-76
2023/05/16 07:57:02;;;;;;;1.50;0.90;;;14.40;97.60;;;;;;4965568;28;20522;-76
2023/05/16 07:59:30;;;;;;;1.50;1.00;;;14.40;97.60;;;;;;4956927;28;20470;-76
2023/05/16 08:01:57;;;;;;;1.50;0.90;;;14.40;97.40;;;;;;4953961;28;20496;-79
2023/05/16 08:04:24;;;;;;;1.50;1.00;;;14.30;97.80;;;;;;4956925;28;20525;-79
2023/05/16 08:06:51;;;;;;;1.50;0.90;;;14.40;96.90;;;;;;4951784;28;20584;-80
2023/05/16 08:09:40;;;;;;;1.50;1.00;;;14.50;96.90;;;;;;4969369;28;20466;-81
2023/05/16 08:12:35;;;;;;;1.50;1.00;;;14.90;96.90;;;;;;4948909;28;20595;-77
2023/05/16 08:15:03;;;;;;;1.50;1.10;;;15.00;93.60;;;;;;4981652;28;20538;-80
2023/05/16 08:17:30;;;;;;;1.50;0.90;;;15.30;95.50;;;;;;4973098;28;21007;-77
2023/05/16 08:19:58;;;;;;;1.50;1.00;;;15.70;92.90;;;;;;4971485;28;20462;-78
2023/05/16 08:22:26;;;;;;;1.50;1.00;;;15.90;90.20;;;;;;4959302;28;20477;-78
2023/05/16 08:24:56;;;;;;;1.50;0.90;;;15.80;88.30;;;;;;4954290;28;20929;-77
2023/05/16 08:27:23;;;;;;;1.50;0.93;;;16.00;90.30;;;;;;4965409;28;20714;-78
2023/05/16 08:29:50;;;;;;;1.50;0.97;;;16.10;87.80;;;;;;4958645;28;20955;-80
2023/05/16 08:32:18;;;;;;;1.50;1.10;;;16.20;88.40;;;;;;4955366;28;20997;-79
2023/05/16 08:34:48;;;;;;;1.50;0.90;;;16.30;88.00;;;;;;4961850;28;20525;-79
2023/05/16 08:37:15;;;;;;;1.50;0.90;;;16.40;88.30;;;;;;4971634;28;20511;-79
2023/05/16 08:40:16;;;;;;;1.50;1.00;;;16.40;86.80;;;;;;4984770;28;20457;-76
2023/05/16 08:42:43;;;;;;;1.50;0.90;;;16.30;87.60;;;;;;4928202;28;20541;-77
2023/05/16 08:45:11;;;;;;;1.47;0.97;;;16.40;87.80;;;;;;4969707;28;21074;-76
2023/05/16 08:47:42;;;;;;;1.47;0.90;;;16.50;87.40;;;;;;4956748;28;20572;-77
2023/05/16 08:50:10;;;;;;;1.50;1.00;;;16.50;87.90;;;;;;4952828;28;20494;-77
2023/05/16 08:52:39;;;;;;;1.50;0.90;;;16.50;85.60;;;;;;4967803;28;20488;-77
2023/05/16 08:55:10;;;;;;;1.50;0.90;;;16.70;87.80;;;;;;4951103;28;20550;-76
2023/05/16 08:57:38;;;;;;;1.50;0.90;;;16.70;85.70;;;;;;4965155;28;20879;-77
2023/05/16 09:00:11;;;;;;;1.47;0.90;;;16.70;86.90;;;;;;4951716;28;20471;-78
2023/05/16 09:02:41;;;;;;;1.50;1.00;;;16.80;87.30;;;;;;4966695;28;20550;-77
2023/05/16 09:05:11;;;;;;;1.47;0.90;;;16.80;86.90;;;;;;4973953;28;20793;-77
2023/05/16 09:07:38;;;;;;;1.47;0.90;;;16.70;83.40;;;;;;4982047;28;20487;-76
2023/05/16 09:10:10;;;;;;;1.47;0.90;;;16.50;84.00;;;;;;4986261;23;20635;-79
2023/05/16 09:12:38;;;;;;;1.47;0.90;;;16.40;85.60;;;;;;4969474;28;20573;-80
2023/05/16 09:15:15;;;;;;;1.50;0.90;;;16.40;85.40;;;;;;4970739;28;20707;-79
2023/05/16 09:17:49;;;;;;;1.47;0.90;;;16.60;85.80;;;;;;4964123;28;20752;-78
2023/05/16 09:20:27;;;;;;;1.50;0.97;;;16.80;85.00;;;;;;4969685;28;20813;-77
2023/05/16 09:22:56;;;;;;;1.47;0.90;;;17.00;82.70;;;;;;4968266;28;20723;-76
2023/05/16 09:25:25;;;;;;;1.50;0.90;;;17.20;81.10;;;;;;4967678;28;20901;-75
2023/05/16 09:27:54;;;;;;;1.50;0.90;;;17.40;82.20;;;;;;4975328;28;20552;-76
2023/05/16 09:30:28;;;;;;;1.47;0.90;;;17.50;83.10;;;;;;4969317;28;20490;-76
2023/05/16 09:32:56;;;;;;;1.50;0.90;;;17.60;82.10;;;;;;4963742;28;20478;-78
2023/05/16 09:35:23;;;;;;;1.50;0.90;;;17.60;81.00;;;;;;4965956;28;20469;-76
2023/05/16 09:38:02;;;;;;;1.50;0.90;;;17.60;80.90;;;;;;4958630;28;20493;-77
2023/05/16 09:40:30;;;;;;;1.47;0.90;;;17.80;82.60;;;;;;4947244;28;20482;-77
2023/05/16 09:43:46;;;;;;;1.47;0.90;;;17.90;81.00;;;;;;4955004;28;20474;-77
2023/05/16 09:46:14;;;;;;;1.47;0.90;;;17.60;81.30;;;;;;4926517;28;20479;-78
2023/05/16 09:48:46;;;;;;;1.47;0.90;;;17.50;81.60;;;;;;4975428;28;21011;-79
2023/05/16 09:51:34;;;;;;;1.43;0.90;;;17.70;83.40;;;;;;4964967;28;20484;-81
2023/05/16 09:54:11;;;;;;;1.50;0.90;;;18.00;81.10;;;;;;4971358;28;21341;-79
2023/05/16 09:56:54;;;;;;;1.47;0.90;;;18.30;80.40;;;;;;4954970;28;20493;-78
2023/05/16 09:59:44;;;;;;;1.43;0.90;;;18.60;78.00;;;;;;4949528;28;20974;-80
2023/05/16 10:02:13;;;;;;;1.50;0.90;;;18.70;78.30;;;;;;4948072;28;20540;-77
2023/05/16 10:04:42;;;;;;;1.47;0.90;;;18.70;77.60;;;;;;4950173;28;20691;-78
2023/05/16 10:07:12;;;;;;;1.47;0.90;;;18.70;77.40;;;;;;4949180;28;20485;-80
2023/05/16 10:09:43;;;;;;;1.50;0.90;;;18.60;77.30;;;;;;4952103;28;20513;-79
2023/05/16 10:12:19;;;;;;;1.50;0.90;;;18.70;75.80;;;;;;4950281;28;20756;-78
2023/05/16 10:14:49;;;;;;;1.47;0.90;;;18.90;75.50;;;;;;4947937;28;20491;-78
2023/05/16 10:17:16;;;;;;;1.50;0.90;;;19.20;74.90;;;;;;4956113;28;20497;-79
2023/05/16 10:19:48;;;;;;;1.43;0.90;;;19.50;76.10;;;;;;4968717;28;20492;-80
2023/05/16 10:22:22;;;;;;;1.50;0.90;;;19.80;77.40;;;;;;4967930;28;20580;-80
2023/05/16 10:24:59;;;;;;;1.43;0.90;;;20.00;74.10;;;;;;4969956;28;20462;-78
2023/05/16 10:27:36;;;;;;;1.43;0.90;;;20.10;73.50;;;;;;4967211;28;20489;-80
2023/05/16 10:30:07;;;;;;;1.70;1.30;;;20.10;73.00;;;;;;4963677;28;20494;-79
2023/05/16 10:32:41;;;;;;;1.47;0.90;;;19.80;72.70;;;;;;4961651;28;20559;-80
2023/05/16 10:35:11;;;;;;;1.43;0.90;;;19.40;74.10;;;;;;4965098;28;20513;-80
2023/05/16 10:40:42;;;;;;;1.47;0.90;;;18.80;75.70;;;;;;4965764;28;20490;-78
2023/05/16 10:43:25;;;;;;;1.50;0.90;;;18.50;76.50;;;;;;4966778;28;20490;-78
2023/05/16 10:45:57;;;;;;;1.50;1.00;;;18.50;77.60;;;;;;4956905;28;20630;-78
2023/05/16 10:48:35;;;;;;;1.47;0.90;;;18.80;77.80;;;;;;4979517;28;20473;-79
2023/05/16 10:51:25;;;;;;;1.50;0.90;;;18.90;76.60;;;;;;4956433;28;20493;-78
2023/05/16 10:53:53;;;;;;;1.43;0.90;;;18.90;75.20;;;;;;4960405;28;20753;-79
2023/05/16 10:56:36;;;;;;;1.50;0.90;;;18.80;74.90;;;;;;4959270;28;20473;-81
2023/05/16 10:59:22;;;;;;;1.50;0.90;;;18.90;76.60;;;;;;4974270;28;20489;-79
2023/05/16 11:02:26;;;;;;;1.47;0.90;;;18.90;77.70;;;;;;4956749;28;20485;-79
2023/05/16 11:04:58;;;;;;;1.47;0.90;;;18.90;76.70;;;;;;4959941;28;20465;-78
2023/05/16 11:07:31;;;;;;;1.47;0.90;;;18.80;77.80;;;;;;4962687;28;20485;-78
2023/05/16 11:10:11;;;;;;;1.47;0.90;;;18.90;76.90;;;;;;4966766;28;20501;-79
2023/05/16 11:12:46;;;;;;;1.50;0.90;;;18.70;76.90;;;;;;4971656;28;20484;-77
2023/05/16 11:15:34;;;;;;;1.47;0.90;;;18.60;77.80;;;;;;4967347;28;20485;-79
2023/05/16 11:18:15;;;;;;;1.47;0.90;;;18.40;76.50;;;;;;4959300;28;20520;-78
2023/05/16 11:20:48;;;;;;;1.43;0.90;;;18.10;77.20;;;;;;4966393;28;21041;-79
2023/05/16 11:23:25;;;;;;;1.50;0.93;;;17.90;78.20;;;;;;4955440;28;20488;-79
2023/05/16 11:25:55;;;;;;;1.50;0.90;;;17.60;78.50;;;;;;4958770;28;20542;-79
2023/05/16 11:28:27;;;;;;;1.50;0.90;;;17.30;79.10;;;;;;4980131;28;20856;-79
2023/05/16 11:30:58;;;;;;;1.43;0.90;;;17.00;80.70;;;;;;4956738;28;20970;-78
2023/05/16 11:33:28;;;;;;;1.50;0.90;;;16.90;82.60;;;;;;4977901;28;20484;-78
2023/05/16 11:36:05;;;;;;;1.47;0.93;;;16.90;82.80;;;;;;4951758;28;20477;-78
2023/05/16 11:38:35;;;;;;;1.97;1.77;;;16.90;83.40;;;;;;4974234;28;20469;-79
2023/05/16 11:41:07;;;;;;;1.50;1.00;;;16.80;83.00;;;;;;4955170;28;20935;-80
2023/05/16 11:43:42;;;;;;;1.70;1.10;;;16.80;82.90;;;;;;4973901;28;20474;-80
2023/05/16 11:46:12;;;;;;;1.40;0.90;;;16.80;85.30;;;;;;4955803;28;20522;-78
2023/05/16 11:48:44;;;;;;;1.43;0.87;;;17.10;86.00;;;;;;4980134;28;20565;-81
2023/05/16 11:51:13;;;;;;;1.50;0.90;;;17.80;82.70;;;;;;4967131;28;20683;-78
2023/05/16 11:53:42;;;;;;;1.50;0.90;;;18.30;80.60;;;;;;4974506;28;20585;-79
2023/05/16 11:56:11;;;;;;;1.43;0.90;;;18.60;77.90;;;;;;4960192;28;20942;-77
2023/05/16 11:58:38;;;;;;;1.47;0.90;;;19.00;78.90;;;;;;4974028;28;20644;-77
2023/05/16 12:01:06;;;;;;;1.50;0.90;;;19.20;75.80;;;;;;4951890;28;20476;-78
2023/05/16 12:03:37;;;;;;;1.50;0.90;;;19.50;76.20;;;;;;4965755;28;20470;-78
2023/05/16 12:06:12;;;;;;;1.43;0.90;;;19.70;75.00;;;;;;4957183;28;20533;-77
2023/05/16 12:08:39;;;;;;;1.50;0.90;;;20.00;77.70;;;;;;4971581;28;20469;-78
2023/05/16 12:11:10;;;;;;;1.43;0.90;;;20.40;74.80;;;;;;4953507;28;20469;-79
2023/05/16 12:13:40;;;;;;;1.50;1.10;;;20.70;72.70;;;;;;4973480;28;20607;-80
2023/05/16 12:16:14;;;;;;;1.43;0.90;;;20.90;72.60;;;;;;4960653;28;21071;-80
2023/05/16 12:18:42;;;;;;;1.50;0.80;;;20.70;72.70;;;;;;4968184;28;20478;-79
2023/05/16 12:21:11;;;;;;;1.50;0.90;;;20.40;74.20;;;;;;4955450;28;20517;-80
2023/05/16 12:23:39;;;;;;;1.43;0.90;;;20.10;75.60;;;;;;4972314;28;21068;-80
2023/05/16 12:26:07;;;;;;;1.47;0.90;;;19.70;76.70;;;;;;4954398;28;20541;-79
2023/05/16 12:28:46;;;;;;;1.43;0.90;;;19.30;77.30;;;;;;4976208;28;20462;-80
2023/05/16 12:31:20;;;;;;;1.47;0.90;;;18.90;77.80;;;;;;4957306;28;20577;-79
2023/05/16 12:33:48;;;;;;;1.43;0.90;;;18.70;78.20;;;;;;4979245;28;20462;-79
2023/05/16 12:36:18;;;;;;;1.50;0.90;;;18.50;79.60;;;;;;4959780;28;20602;-82
2023/05/16 12:38:47;;;;;;;1.43;0.90;;;18.40;80.90;;;;;;4980755;28;20474;-79
2023/05/16 12:41:20;;;;;;;1.47;0.90;;;18.40;80.80;;;;;;4958165;28;20513;-81
2023/05/16 12:43:51;;;;;;;1.40;0.90;;;18.60;81.10;;;;;;4961966;28;20496;-80
2023/05/16 12:46:25;;;;;;;1.43;0.90;;;18.60;78.90;;;;;;4957195;28;20474;-81
2023/05/16 12:49:04;;;;;;;1.43;0.90;;;18.60;79.90;;;;;;4966921;28;20514;-79
2023/05/16 12:51:48;;;;;;;1.50;0.90;;;18.70;80.70;;;;;;4957715;28;20493;-78
2023/05/16 12:54:21;;;;;;;1.47;0.90;;;19.10;79.80;;;;;;4970488;28;20631;-80
2023/05/16 12:56:52;;;;;;;1.50;0.90;;;19.50;80.30;;;;;;4957867;28;20971;-80
2023/05/16 12:59:24;;;;;;;1.47;0.90;;;19.80;76.10;;;;;;4967191;28;20521;-78
2023/05/16 13:01:51;;;;;;;1.43;0.90;;;20.00;74.90;;;;;;4959863;28;20493;-78
2023/05/16 13:04:22;;;;;;;1.47;0.90;;;20.20;75.80;;;;;;4973089;28;20496;-81
2023/05/16 13:07:06;;;;;;;1.50;0.90;;;20.40;75.10;;;;;;4963743;28;20516;-81
2023/05/16 13:09:38;;;;;;;1.50;0.90;;;20.50;73.00;;;;;;4967998;28;20556;-80
2023/05/16 13:12:09;;;;;;;1.47;0.90;;;20.60;70.80;;;;;;4960020;28;20616;-81
2023/05/16 13:14:41;;;;;;;1.43;0.83;;;20.80;71.90;;;;;;4971838;28;20486;-79
2023/05/16 13:17:08;;;;;;;1.47;0.87;;;21.00;71.90;;;;;;4967747;28;20476;-81
2023/05/16 13:19:35;;;;;;;1.47;0.90;;;21.20;71.20;;;;;;4970492;28;20486;-81